createdAt,value
2019-02-25T00:01:45.153Z,72.79
2019-02-25T00:04:41.787Z,73.12
2019-02-25T00:07:40.570Z,73.27
2019-02-25T00:10:36.069Z,73.30
2019-02-25T00:13:32.823Z,72.75
2019-02-25T00:16:28.539Z,72.85
2019-02-25T00:19:25.478Z,72.85
2019-02-25T00:22:21.823Z,73.27
2019-02-25T00:25:18.349Z,73.33
2019-02-25T00:28:15.075Z,73.74
2019-02-25T00:31:11.464Z,74.17
2019-02-25T00:34:06.988Z,74.00
2019-02-25T00:37:04.489Z,73.74
2019-02-25T00:40:00.311Z,73.58
2019-02-25T00:42:57.012Z,73.71
2019-02-25T00:45:51.450Z,74.79
2019-02-25T00:48:48.612Z,74.52
2019-02-25T00:51:43.419Z,75.28
2019-02-25T00:54:39.917Z,75.69
2019-02-25T00:57:36.361Z,75.89
2019-02-25T01:00:33.012Z,75.63
2019-02-25T01:03:28.525Z,75.57
2019-02-25T01:06:25.767Z,76.05
2019-02-25T01:09:22.238Z,76.15
2019-02-25T01:12:18.760Z,76.18
2019-02-25T01:15:14.488Z,75.71
2019-02-25T01:18:12.126Z,76.74
2019-02-25T01:21:09.840Z,76.51
2019-02-25T01:24:06.361Z,76.14
2019-02-25T01:27:02.799Z,75.80
2019-02-25T01:29:58.519Z,76.22
2019-02-25T01:32:56.069Z,75.88
2019-02-25T01:35:52.831Z,76.32
2019-02-25T01:38:49.349Z,76.30
2019-02-25T01:41:44.831Z,76.66
2019-02-25T01:44:41.378Z,76.78
2019-02-25T01:47:38.116Z,76.77
2019-02-25T01:50:34.335Z,76.89
2019-02-25T01:53:29.747Z,77.27
2019-02-25T01:56:27.170Z,77.46
2019-02-25T01:59:22.254Z,77.67
2019-02-25T02:02:18.989Z,77.62
2019-02-25T02:05:14.696Z,77.70
2019-02-25T02:08:12.571Z,78.27
2019-02-25T02:11:09.129Z,77.75
2019-02-25T02:14:05.469Z,77.11
2019-02-25T02:17:01.769Z,76.28
2019-02-25T02:19:57.785Z,76.60
2019-02-25T02:22:52.354Z,76.87
2019-02-25T02:25:49.846Z,77.23
2019-02-25T02:28:45.414Z,77.60
2019-02-25T02:31:41.930Z,77.12
2019-02-25T02:34:37.422Z,77.04
2019-02-25T02:37:34.761Z,76.55
2019-02-25T02:40:29.892Z,76.37
2019-02-25T02:43:26.539Z,76.15
2019-02-25T02:46:35.567Z,76.27
2019-02-25T02:49:32.081Z,76.26
2019-02-25T02:52:27.488Z,76.55
2019-02-25T02:55:23.643Z,77.01
2019-02-25T02:58:18.996Z,77.02
2019-02-25T03:01:15.555Z,77.37
2019-02-25T03:04:11.259Z,77.87
2019-02-25T03:07:08.700Z,77.97
2019-02-25T03:10:05.063Z,78.81
2019-02-25T03:13:02.664Z,79.14
2019-02-25T03:15:58.155Z,79.85
2019-02-25T03:18:55.036Z,79.57
2019-02-25T03:21:47.389Z,79.50
2019-02-25T03:24:43.840Z,79.74
2019-02-25T03:27:40.321Z,80.22
2019-02-25T03:30:38.133Z,80.36
2019-02-25T03:33:33.675Z,79.83
2019-02-25T03:36:30.223Z,80.37
2019-02-25T03:39:26.103Z,80.20
2019-02-25T03:42:22.525Z,80.39
2019-02-25T03:45:18.223Z,80.06
2019-02-25T03:48:15.696Z,79.80
2019-02-25T03:51:11.174Z,79.61
2019-02-25T03:54:07.731Z,79.74
2019-02-25T03:57:03.107Z,79.92
2019-02-25T03:59:59.636Z,80.12
2019-02-25T04:02:55.344Z,80.30
2019-02-25T04:05:51.871Z,80.68
2019-02-25T04:08:48.574Z,80.55
2019-02-25T04:11:44.975Z,80.79
2019-02-25T04:14:41.563Z,80.65
2019-02-25T04:17:38.106Z,80.47
2019-02-25T04:20:33.833Z,80.61
2019-02-25T04:23:30.590Z,80.41
2019-02-25T04:26:27.767Z,80.42
2019-02-25T04:29:25.009Z,80.68
2019-02-25T04:32:21.774Z,80.55
2019-02-25T04:35:18.554Z,80.53
2019-02-25T04:38:15.301Z,80.66
2019-02-25T04:41:10.713Z,80.80
2019-02-25T04:44:06.889Z,80.71
2019-02-25T04:47:01.981Z,80.78
2019-02-25T04:49:58.737Z,81.07
2019-02-25T04:52:53.700Z,80.73
2019-02-25T04:55:49.924Z,80.96
2019-02-25T04:58:45.506Z,81.11
2019-02-25T05:01:42.081Z,81.55
2019-02-25T05:04:37.552Z,81.63
2019-02-25T05:07:34.056Z,81.94
2019-02-25T05:10:30.785Z,82.68
2019-02-25T05:13:28.225Z,83.05
2019-02-25T05:16:24.527Z,83.78
2019-02-25T05:19:22.056Z,83.90
2019-02-25T05:22:17.784Z,84.87
2019-02-25T05:25:15.308Z,85.51
2019-02-25T05:28:10.765Z,86.23
2019-02-25T05:31:07.296Z,86.41
2019-02-25T05:34:02.920Z,86.47
2019-02-25T05:36:59.051Z,86.65
2019-02-25T05:39:55.171Z,87.04
2019-02-25T05:42:51.721Z,87.11
2019-02-25T05:45:47.354Z,87.34
2019-02-25T05:48:45.032Z,87.29
2019-02-25T05:51:40.324Z,86.94
2019-02-25T05:54:37.107Z,86.57
2019-02-25T05:57:32.784Z,86.34
2019-02-25T06:00:30.933Z,86.51
2019-02-25T06:03:27.429Z,87.24
2019-02-25T06:06:23.835Z,87.33
2019-02-25T06:09:21.645Z,87.35
2019-02-25T06:12:17.378Z,86.81
2019-02-25T06:15:13.952Z,86.73
2019-02-25T06:18:10.598Z,86.29
2019-02-25T06:21:08.244Z,86.27
2019-02-25T06:24:04.812Z,86.09
2019-02-25T06:27:01.127Z,85.93
2019-02-25T06:29:57.704Z,85.82
2019-02-25T06:32:54.239Z,85.41
2019-02-25T06:35:49.775Z,84.61
2019-02-25T06:38:46.462Z,84.61
2019-02-25T06:41:42.836Z,84.97
2019-02-25T06:44:39.696Z,85.08
2019-02-25T06:47:34.598Z,85.19
2019-02-25T06:50:31.797Z,85.00
2019-02-25T06:53:28.945Z,85.16
2019-02-25T06:56:23.944Z,85.18
2019-02-25T06:59:20.343Z,85.01
2019-02-25T07:02:15.859Z,84.90
2019-02-25T07:05:22.115Z,84.51
2019-02-25T07:08:23.997Z,84.34
2019-02-25T07:11:30.409Z,84.45
2019-02-25T07:14:36.639Z,84.18
2019-02-25T07:17:54.276Z,84.28
2019-02-25T07:21:05.961Z,84.12
2019-02-25T07:24:17.277Z,83.54
2019-02-25T07:27:24.476Z,82.45
2019-02-25T07:30:46.081Z,82.14
2019-02-25T07:33:57.859Z,81.10
2019-02-25T07:37:13.730Z,79.70
2019-02-25T07:40:22.564Z,79.46
2019-02-25T07:43:30.930Z,78.04
2019-02-25T07:46:48.007Z,76.87
2019-02-25T07:49:58.560Z,76.58
2019-02-25T07:53:15.897Z,75.39
2019-02-25T07:56:32.820Z,74.58
2019-02-25T07:59:58.331Z,73.22
2019-02-25T08:03:21.514Z,72.82
2019-02-25T08:06:37.475Z,72.11
2019-02-25T08:09:52.161Z,71.65
2019-02-25T08:12:57.525Z,70.28
2019-02-25T08:16:06.235Z,68.58
2019-02-25T08:19:23.598Z,67.55
2019-02-25T08:22:30.214Z,67.65
2019-02-25T08:25:40.068Z,67.06
2019-02-25T08:28:52.723Z,65.14
2019-02-25T08:32:01.846Z,65.16
2019-02-25T08:35:27.686Z,64.65
2019-02-25T08:38:40.608Z,62.60
2019-02-25T08:41:46.001Z,62.80
2019-02-25T08:44:46.984Z,62.52
2019-02-25T08:48:02.748Z,61.41
2019-02-25T08:50:56.955Z,58.86
2019-02-25T08:53:53.699Z,56.52
2019-02-25T08:56:50.424Z,56.45
2019-02-25T08:59:46.277Z,54.41
2019-02-25T09:02:44.164Z,53.03
2019-02-25T09:05:39.172Z,52.57
2019-02-25T09:08:35.938Z,53.65
2019-02-25T09:11:32.590Z,53.59
2019-02-25T09:14:30.499Z,54.31
2019-02-25T09:17:25.914Z,53.74
2019-02-25T09:20:22.146Z,51.83
2019-02-25T09:23:19.933Z,51.39
2019-02-25T09:26:17.524Z,51.58
2019-02-25T09:29:12.147Z,51.58
2019-02-25T09:32:12.950Z,51.31
2019-02-25T09:35:08.718Z,50.92
2019-02-25T09:38:06.107Z,48.96
2019-02-25T09:41:01.600Z,49.21
2019-02-25T09:43:59.283Z,48.34
2019-02-25T09:46:54.856Z,47.72
2019-02-25T09:49:51.261Z,46.09
2019-02-25T09:52:47.051Z,47.24
2019-02-25T09:55:43.439Z,46.56
2019-02-25T09:58:39.496Z,46.07
2019-02-25T10:01:42.357Z,45.04
2019-02-25T10:04:38.792Z,44.05
2019-02-25T10:07:35.358Z,43.40
2019-02-25T10:10:31.092Z,42.65
2019-02-25T10:13:28.864Z,42.58
2019-02-25T10:16:24.432Z,42.76
2019-02-25T10:19:21.058Z,41.18
2019-02-25T10:22:17.694Z,40.29
2019-02-25T10:25:14.652Z,40.18
2019-02-25T10:28:09.533Z,40.44
2019-02-25T10:31:07.168Z,43.17
2019-02-25T10:34:03.777Z,40.66
2019-02-25T10:37:00.439Z,42.46
2019-02-25T10:39:56.248Z,40.51
2019-02-25T10:42:52.869Z,40.42
2019-02-25T10:45:48.477Z,42.49
2019-02-25T10:48:44.720Z,42.28
2019-02-25T10:51:41.167Z,39.89
2019-02-25T10:54:37.355Z,37.61
2019-02-25T10:57:36.052Z,38.16
2019-02-25T11:00:35.042Z,40.55
2019-02-25T11:03:29.959Z,38.97
2019-02-25T11:06:27.396Z,39.64
2019-02-25T11:09:35.713Z,40.70
2019-02-25T11:12:32.226Z,43.05
2019-02-25T11:15:27.699Z,43.52
2019-02-25T11:18:26.693Z,43.44
2019-02-25T11:21:20.783Z,42.21
2019-02-25T11:24:20.720Z,42.74
2019-02-25T11:27:15.973Z,43.02
2019-02-25T11:30:14.223Z,42.47
2019-02-25T11:33:07.610Z,43.33
2019-02-25T11:36:04.346Z,43.75
2019-02-25T11:39:02.117Z,44.02
2019-02-25T11:41:56.754Z,44.82
2019-02-25T11:44:54.275Z,45.39
2019-02-25T11:47:49.281Z,45.44
2019-02-25T11:50:45.115Z,45.40
2019-02-25T11:53:40.216Z,45.43
2019-02-25T11:56:36.807Z,45.59
2019-02-25T11:59:32.310Z,45.34
2019-02-25T12:02:29.156Z,46.17
2019-02-25T12:05:25.951Z,45.89
2019-02-25T12:08:22.077Z,46.06
2019-02-25T12:11:17.581Z,45.98
2019-02-25T12:14:14.140Z,46.85
2019-02-25T12:17:10.175Z,47.24
2019-02-25T12:20:07.963Z,47.09
2019-02-25T12:23:03.712Z,47.09
2019-02-25T12:26:02.508Z,46.81
2019-02-25T12:28:59.320Z,45.23
2019-02-25T12:31:55.824Z,46.36
2019-02-25T12:34:52.576Z,45.11
2019-02-25T12:37:48.768Z,46.58
2019-02-25T12:40:44.742Z,47.17
2019-02-25T12:43:41.027Z,46.91
2019-02-25T12:46:37.775Z,46.71
2019-02-25T12:49:34.439Z,45.78
2019-02-25T12:52:30.210Z,46.34
2019-02-25T12:55:27.726Z,46.50
2019-02-25T12:58:23.294Z,46.94
2019-02-25T13:01:19.832Z,48.34
2019-02-25T13:04:15.167Z,49.14
2019-02-25T13:07:11.396Z,49.67
2019-02-25T13:10:06.898Z,50.32
2019-02-25T13:13:03.606Z,50.79
2019-02-25T13:16:01.092Z,50.85
2019-02-25T13:18:56.565Z,50.58
2019-02-25T13:21:52.772Z,50.85
2019-02-25T13:24:47.902Z,50.91
2019-02-25T13:27:45.830Z,51.69
2019-02-25T13:30:41.859Z,51.05
2019-02-25T13:33:38.377Z,52.22
2019-02-25T13:36:36.297Z,52.50
2019-02-25T13:39:32.913Z,52.35
2019-02-25T13:42:28.433Z,52.41
2019-02-25T13:45:25.182Z,52.61
2019-02-25T13:48:20.672Z,51.55
2019-02-25T13:51:17.446Z,51.42
2019-02-25T13:54:11.930Z,51.81
2019-02-25T13:57:09.469Z,51.42
2019-02-25T14:00:04.955Z,51.80
2019-02-25T14:03:03.278Z,51.67
2019-02-25T14:05:58.029Z,51.28
2019-02-25T14:08:55.085Z,51.33
2019-02-25T14:11:52.214Z,51.59
2019-02-25T14:14:48.874Z,49.99
2019-02-25T14:17:46.009Z,50.37
2019-02-25T14:20:42.454Z,50.25
2019-02-25T14:23:40.545Z,50.93
2019-02-25T14:26:38.027Z,50.49
2019-02-25T14:29:33.055Z,50.79
2019-02-25T14:32:30.242Z,50.40
2019-02-25T14:35:28.221Z,50.90
2019-02-25T14:38:23.393Z,49.95
2019-02-25T14:41:21.068Z,50.88
2019-02-25T14:44:15.201Z,50.12
2019-02-25T14:47:20.609Z,50.59
2019-02-25T14:50:08.366Z,51.09
2019-02-25T14:53:06.576Z,50.72
2019-02-25T14:56:03.911Z,50.87
2019-02-25T14:58:56.163Z,50.41
2019-02-25T15:01:52.979Z,50.17
2019-02-25T15:04:48.476Z,49.13
2019-02-25T15:07:44.979Z,49.90
2019-02-25T15:10:42.832Z,49.12
2019-02-25T15:13:39.077Z,48.94
2019-02-25T15:16:33.197Z,49.50
2019-02-25T15:19:31.994Z,49.85
2019-02-25T15:22:28.103Z,49.84
2019-02-25T15:25:21.960Z,50.22
2019-02-25T15:31:11.317Z,50.04
2019-02-25T15:34:06.562Z,50.34
2019-02-25T15:37:02.597Z,49.98
2019-02-25T15:39:59.066Z,50.06
2019-02-25T15:42:54.457Z,49.56
2019-02-25T15:45:50.919Z,49.61
2019-02-25T15:48:46.695Z,48.73
2019-02-25T15:51:45.170Z,49.71
2019-02-25T15:54:39.370Z,50.11
2019-02-25T15:57:37.758Z,51.20
2019-02-25T16:00:34.967Z,51.92
2019-02-25T16:03:32.268Z,52.63
2019-02-25T16:06:29.205Z,52.72
2019-02-25T16:09:25.528Z,53.66
2019-02-25T16:12:23.191Z,54.24
2019-02-25T16:15:17.406Z,54.36
2019-02-25T16:18:14.126Z,54.89
2019-02-25T16:21:11.174Z,55.34
2019-02-25T16:24:08.252Z,56.01
2019-02-25T16:27:02.655Z,56.23
2019-02-25T16:30:00.248Z,56.52
2019-02-25T16:32:54.692Z,57.08
2019-02-25T16:35:52.484Z,57.67
2019-02-25T16:38:51.240Z,57.87
2019-02-25T16:41:45.741Z,58.27
2019-02-25T16:44:40.467Z,58.69
2019-02-25T16:47:37.703Z,59.00
2019-02-25T16:50:34.837Z,59.43
2019-02-25T16:53:34.658Z,59.71
2019-02-25T16:56:26.131Z,60.30
2019-02-25T16:59:24.940Z,60.45
2019-02-25T17:02:19.493Z,60.62
2019-02-25T17:05:14.259Z,60.97
2019-02-25T17:08:12.558Z,61.41
2019-02-25T17:11:06.486Z,62.26
2019-02-25T17:14:03.822Z,61.95
2019-02-25T17:16:58.820Z,62.34
2019-02-25T17:19:56.222Z,62.88
2019-02-25T17:22:51.961Z,63.32
2019-02-25T17:25:48.440Z,63.88
2019-02-25T17:28:44.576Z,64.40
2019-02-25T17:31:41.236Z,65.21
2019-02-25T17:34:37.554Z,66.23
2019-02-25T17:37:36.084Z,67.61
2019-02-25T17:40:29.423Z,68.75
2019-02-25T17:43:27.335Z,69.51
2019-02-25T17:46:22.884Z,70.25
2019-02-25T17:49:21.671Z,71.29
2019-02-25T17:52:18.421Z,71.60
2019-02-25T17:55:14.149Z,71.26
2019-02-25T17:58:09.703Z,71.06
2019-02-25T18:01:06.221Z,71.07
2019-02-25T18:04:02.580Z,71.51
2019-02-25T18:06:58.241Z,71.98
2019-02-25T18:09:55.853Z,72.47
2019-02-25T18:12:51.479Z,73.00
2019-02-25T18:15:49.863Z,73.54
2019-02-25T18:18:45.107Z,73.97
2019-02-25T18:21:43.019Z,74.47
2019-02-25T18:24:37.000Z,74.87
2019-02-25T18:27:35.236Z,75.36
2019-02-25T18:30:32.264Z,75.69
2019-02-25T18:33:29.163Z,75.91
2019-02-25T18:36:26.456Z,76.60
2019-02-25T18:39:25.257Z,77.08
2019-02-25T18:42:20.339Z,77.28
2019-02-25T18:45:16.054Z,77.67
2019-02-25T18:48:11.248Z,78.37
2019-02-25T18:51:09.119Z,78.82
2019-02-25T18:54:04.324Z,79.20
2019-02-25T18:57:01.716Z,80.74
2019-02-25T18:59:59.277Z,81.00
2019-02-25T19:02:54.101Z,80.88
2019-02-25T19:05:51.041Z,80.92
2019-02-25T19:08:47.203Z,81.09
2019-02-25T19:11:45.049Z,81.39
2019-02-25T19:14:39.170Z,81.28
2019-02-25T19:17:35.741Z,81.29
2019-02-25T19:20:32.370Z,81.40
2019-02-25T19:23:28.903Z,81.54
2019-02-25T19:26:25.737Z,81.64
2019-02-25T19:29:21.795Z,81.93
2019-02-25T19:32:17.632Z,82.05
2019-02-25T19:35:13.744Z,82.36
2019-02-25T19:38:13.303Z,83.00
2019-02-25T19:41:13.051Z,83.58
2019-02-25T19:44:05.947Z,84.01
2019-02-25T19:47:01.933Z,84.41
2019-02-25T19:49:59.642Z,85.03
2019-02-25T19:52:54.163Z,85.23
2019-02-25T19:55:53.215Z,85.43
2019-02-25T19:58:45.819Z,86.07
2019-02-25T20:01:42.458Z,86.25
2019-02-25T20:04:42.287Z,86.30
2019-02-25T20:07:36.987Z,86.67
2019-02-25T20:10:34.712Z,88.18
2019-02-25T20:13:30.295Z,89.14
2019-02-25T20:16:29.838Z,89.00
2019-02-25T20:19:22.727Z,88.91
2019-02-25T20:22:20.103Z,88.67
2019-02-25T20:25:16.801Z,88.55
2019-02-25T20:28:11.627Z,88.76
2019-02-25T20:31:10.033Z,89.11
2019-02-25T20:34:06.253Z,89.35
2019-02-25T20:37:03.851Z,89.52
2019-02-25T20:40:00.603Z,89.71
2019-02-25T20:42:57.774Z,89.75
2019-02-25T20:45:54.051Z,89.95
2019-02-25T20:48:48.619Z,90.03
2019-02-25T20:51:45.635Z,90.31
2019-02-25T20:54:43.721Z,90.63
2019-02-25T20:57:38.172Z,91.07
2019-02-25T21:00:39.069Z,91.32
2019-02-25T21:03:32.088Z,91.57
2019-02-25T21:06:28.550Z,91.82
2019-02-25T21:09:24.115Z,91.76
2019-02-25T21:12:21.814Z,91.90
2019-02-25T21:15:16.585Z,92.00
2019-02-25T21:18:13.274Z,92.00
2019-02-25T21:21:13.493Z,92.68
2019-02-25T21:24:08.752Z,93.08
2019-02-25T21:27:06.377Z,93.05
2019-02-25T21:30:01.436Z,93.59
2019-02-25T21:32:58.922Z,94.00
2019-02-25T21:35:52.871Z,94.23
2019-02-25T21:38:51.524Z,94.22
2019-02-25T21:41:45.980Z,94.24
2019-02-25T21:44:46.110Z,94.26
2019-02-25T21:47:38.758Z,94.27
2019-02-25T21:50:36.033Z,94.38
2019-02-25T21:53:31.822Z,94.15
2019-02-25T21:56:28.657Z,94.15
2019-02-25T21:59:25.461Z,94.32
2019-02-25T22:02:21.000Z,94.35
2019-02-25T22:05:19.014Z,94.23
2019-02-25T22:08:13.412Z,94.30
2019-02-25T22:11:14.444Z,94.25
2019-02-25T22:14:06.632Z,94.27
2019-02-25T22:17:03.376Z,94.29
2019-02-25T22:19:58.923Z,94.24
2019-02-25T22:22:59.099Z,94.61
2019-02-25T22:25:52.697Z,94.67
2019-02-25T22:28:51.002Z,94.95
2019-02-25T22:31:45.593Z,95.35
2019-02-25T22:34:42.079Z,95.88
2019-02-25T22:37:38.539Z,96.21
2019-02-25T22:40:36.660Z,96.41
2019-02-25T22:43:31.878Z,96.52
2019-02-25T22:46:30.081Z,96.75
2019-02-25T22:49:26.680Z,96.80
2019-02-25T22:52:22.169Z,96.76
2019-02-25T22:55:18.481Z,96.74
2019-02-25T22:58:13.333Z,96.84
2019-02-25T23:01:09.283Z,96.84
2019-02-25T23:04:04.795Z,96.74
2019-02-25T23:07:02.594Z,96.69
2019-02-25T23:09:58.099Z,96.93
2019-02-25T23:12:54.844Z,96.75
2019-02-25T23:15:51.223Z,96.58
2019-02-25T23:18:47.793Z,96.73
2019-02-25T23:21:41.605Z,97.29
2019-02-25T23:24:42.051Z,97.51
2019-02-25T23:27:36.620Z,98.08
2019-02-25T23:30:32.740Z,98.56
2019-02-25T23:33:28.576Z,99.52
2019-02-25T23:36:26.440Z,100.00
2019-02-25T23:39:20.911Z,100.00
2019-02-25T23:42:18.012Z,100.00
2019-02-25T23:45:15.489Z,100.00
2019-02-25T23:48:11.790Z,100.00
2019-02-25T23:51:07.181Z,100.00
2019-02-25T23:54:03.723Z,100.00
2019-02-25T23:57:01.893Z,100.00
2019-02-25T23:59:55.728Z,100.00
